sensor_id;sensor_type;location;lat;lon;timestamp;P1;durP1;ratioP1;P2;durP2;ratioP2
54679;SDS011;40578;53.178;5.846;2023-05-07T00:02:04;33.83;;;23.90;;
54679;SDS011;40578;53.178;5.846;2023-05-07T00:04:29;31.73;;;23.33;;
54679;SDS011;40578;53.178;5.846;2023-05-07T00:07:01;32.60;;;24.35;;
54679;SDS011;40578;53.178;5.846;2023-05-07T00:09:27;33.38;;;24.17;;
54679;SDS011;40578;53.178;5.846;2023-05-07T00:11:53;33.27;;;25.70;;
54679;SDS011;40578;53.178;5.846;2023-05-07T00:14:18;32.30;;;23.90;;
54679;SDS011;40578;53.178;5.846;2023-05-07T00:16:44;34.43;;;25.13;;
54679;SDS011;40578;53.178;5.846;2023-05-07T00:19:09;33.50;;;25.07;;
54679;SDS011;40578;53.178;5.846;2023-05-07T00:21:35;35.57;;;24.40;;
54679;SDS011;40578;53.178;5.846;2023-05-07T00:24:00;32.50;;;24.33;;
54679;SDS011;40578;53.178;5.846;2023-05-07T00:26:26;35.50;;;25.23;;
54679;SDS011;40578;53.178;5.846;2023-05-07T00:28:52;34.73;;;24.67;;
54679;SDS011;40578;53.178;5.846;2023-05-07T00:31:17;33.60;;;24.57;;
54679;SDS011;40578;53.178;5.846;2023-05-07T00:33:43;37.33;;;24.97;;
54679;SDS011;40578;53.178;5.846;2023-05-07T00:36:08;34.30;;;24.67;;
54679;SDS011;40578;53.178;5.846;2023-05-07T00:38:34;37.43;;;24.27;;
54679;SDS011;40578;53.178;5.846;2023-05-07T00:41:00;33.83;;;24.87;;
54679;SDS011;40578;53.178;5.846;2023-05-07T00:43:27;32.15;;;24.23;;
54679;SDS011;40578;53.178;5.846;2023-05-07T00:45:53;31.07;;;24.77;;
54679;SDS011;40578;53.178;5.846;2023-05-07T00:48:19;35.53;;;24.67;;
54679;SDS011;40578;53.178;5.846;2023-05-07T00:50:45;31.50;;;24.38;;
54679;SDS011;40578;53.178;5.846;2023-05-07T00:53:10;35.67;;;24.70;;
54679;SDS011;40578;53.178;5.846;2023-05-07T00:55:36;36.80;;;24.33;;
54679;SDS011;40578;53.178;5.846;2023-05-07T00:58:03;35.08;;;24.05;;
54679;SDS011;40578;53.178;5.846;2023-05-07T01:00:29;33.37;;;24.67;;
54679;SDS011;40578;53.178;5.846;2023-05-07T01:02:55;32.60;;;23.37;;
54679;SDS011;40578;53.178;5.846;2023-05-07T01:05:20;31.37;;;22.97;;
54679;SDS011;40578;53.178;5.846;2023-05-07T01:07:48;33.60;;;24.13;;
54679;SDS011;40578;53.178;5.846;2023-05-07T01:10:15;32.15;;;23.25;;
54679;SDS011;40578;53.178;5.846;2023-05-07T01:12:41;33.08;;;23.90;;
54679;SDS011;40578;53.178;5.846;2023-05-07T01:15:08;33.20;;;23.38;;
54679;SDS011;40578;53.178;5.846;2023-05-07T01:17:35;33.03;;;24.70;;
54679;SDS011;40578;53.178;5.846;2023-05-07T01:20:02;31.73;;;22.67;;
54679;SDS011;40578;53.178;5.846;2023-05-07T01:22:30;31.60;;;23.92;;
54679;SDS011;40578;53.178;5.846;2023-05-07T01:24:57;31.90;;;24.67;;
54679;SDS011;40578;53.178;5.846;2023-05-07T01:27:24;32.00;;;23.50;;
54679;SDS011;40578;53.178;5.846;2023-05-07T01:29:50;36.47;;;25.45;;
54679;SDS011;40578;53.178;5.846;2023-05-07T01:32:16;36.20;;;25.20;;
54679;SDS011;40578;53.178;5.846;2023-05-07T01:34:46;36.20;;;25.27;;
54679;SDS011;40578;53.178;5.846;2023-05-07T01:37:14;32.58;;;25.23;;
54679;SDS011;40578;53.178;5.846;2023-05-07T01:39:40;34.40;;;24.87;;
54679;SDS011;40578;53.178;5.846;2023-05-07T01:42:07;33.15;;;24.98;;
54679;SDS011;40578;53.178;5.846;2023-05-07T01:44:33;34.87;;;24.53;;
54679;SDS011;40578;53.178;5.846;2023-05-07T01:46:58;34.33;;;25.43;;
54679;SDS011;40578;53.178;5.846;2023-05-07T01:49:24;37.83;;;25.07;;
54679;SDS011;40578;53.178;5.846;2023-05-07T01:51:51;35.95;;;26.00;;
54679;SDS011;40578;53.178;5.846;2023-05-07T01:54:16;35.07;;;25.87;;
54679;SDS011;40578;53.178;5.846;2023-05-07T01:56:42;36.87;;;24.90;;
54679;SDS011;40578;53.178;5.846;2023-05-07T01:59:08;39.90;;;26.63;;
54679;SDS011;40578;53.178;5.846;2023-05-07T02:01:34;38.60;;;27.77;;
54679;SDS011;40578;53.178;5.846;2023-05-07T02:03:59;38.63;;;27.37;;
54679;SDS011;40578;53.178;5.846;2023-05-07T02:06:25;39.57;;;26.93;;
54679;SDS011;40578;53.178;5.846;2023-05-07T02:08:50;39.93;;;28.30;;
54679;SDS011;40578;53.178;5.846;2023-05-07T02:11:16;39.80;;;27.77;;
54679;SDS011;40578;53.178;5.846;2023-05-07T02:13:42;43.17;;;28.80;;
54679;SDS011;40578;53.178;5.846;2023-05-07T02:16:07;40.97;;;28.77;;
54679;SDS011;40578;53.178;5.846;2023-05-07T02:18:33;38.13;;;28.30;;
54679;SDS011;40578;53.178;5.846;2023-05-07T02:20:58;43.27;;;28.77;;
54679;SDS011;40578;53.178;5.846;2023-05-07T02:23:24;43.90;;;29.47;;
54679;SDS011;40578;53.178;5.846;2023-05-07T02:25:51;39.13;;;28.63;;
54679;SDS011;40578;53.178;5.846;2023-05-07T02:28:16;43.75;;;29.40;;
54679;SDS011;40578;53.178;5.846;2023-05-07T02:30:42;43.37;;;29.83;;
54679;SDS011;40578;53.178;5.846;2023-05-07T02:33:07;45.37;;;30.87;;
54679;SDS011;40578;53.178;5.846;2023-05-07T02:35:33;40.40;;;30.17;;
54679;SDS011;40578;53.178;5.846;2023-05-07T02:37:59;45.35;;;31.65;;
54679;SDS011;40578;53.178;5.846;2023-05-07T02:40:25;42.87;;;30.50;;
54679;SDS011;40578;53.178;5.846;2023-05-07T02:42:50;40.67;;;30.37;;
54679;SDS011;40578;53.178;5.846;2023-05-07T02:45:16;42.17;;;31.57;;
54679;SDS011;40578;53.178;5.846;2023-05-07T02:47:41;42.57;;;30.47;;
54679;SDS011;40578;53.178;5.846;2023-05-07T02:50:07;41.70;;;30.20;;
54679;SDS011;40578;53.178;5.846;2023-05-07T02:52:33;43.20;;;30.97;;
54679;SDS011;40578;53.178;5.846;2023-05-07T02:54:58;40.17;;;29.93;;
54679;SDS011;40578;53.178;5.846;2023-05-07T02:57:24;42.57;;;31.03;;
54679;SDS011;40578;53.178;5.846;2023-05-07T02:59:49;41.00;;;29.50;;
54679;SDS011;40578;53.178;5.846;2023-05-07T03:02:15;40.90;;;30.00;;
54679;SDS011;40578;53.178;5.846;2023-05-07T03:04:41;47.07;;;32.67;;
54679;SDS011;40578;53.178;5.846;2023-05-07T03:07:07;44.83;;;31.00;;
54679;SDS011;40578;53.178;5.846;2023-05-07T03:09:32;45.87;;;30.77;;
54679;SDS011;40578;53.178;5.846;2023-05-07T03:11:58;44.37;;;31.87;;
54679;SDS011;40578;53.178;5.846;2023-05-07T03:14:24;42.53;;;30.00;;
54679;SDS011;40578;53.178;5.846;2023-05-07T03:16:49;45.90;;;31.37;;
54679;SDS011;40578;53.178;5.846;2023-05-07T03:19:15;42.55;;;29.17;;
54679;SDS011;40578;53.178;5.846;2023-05-07T03:21:41;43.73;;;30.73;;
54679;SDS011;40578;53.178;5.846;2023-05-07T03:24:07;41.83;;;31.10;;
54679;SDS011;40578;53.178;5.846;2023-05-07T03:26:32;43.07;;;29.27;;
54679;SDS011;40578;53.178;5.846;2023-05-07T03:28:58;48.40;;;32.43;;
54679;SDS011;40578;53.178;5.846;2023-05-07T03:31:23;42.33;;;30.07;;
54679;SDS011;40578;53.178;5.846;2023-05-07T03:33:50;43.08;;;31.13;;
54679;SDS011;40578;53.178;5.846;2023-05-07T03:36:17;42.60;;;30.90;;
54679;SDS011;40578;53.178;5.846;2023-05-07T03:38:43;42.93;;;30.70;;
54679;SDS011;40578;53.178;5.846;2023-05-07T03:41:08;43.30;;;32.07;;
54679;SDS011;40578;53.178;5.846;2023-05-07T03:43:34;43.63;;;31.63;;
54679;SDS011;40578;53.178;5.846;2023-05-07T03:46:00;46.23;;;31.77;;
54679;SDS011;40578;53.178;5.846;2023-05-07T03:48:25;43.07;;;31.33;;
54679;SDS011;40578;53.178;5.846;2023-05-07T03:50:51;49.67;;;32.37;;
54679;SDS011;40578;53.178;5.846;2023-05-07T03:53:17;46.90;;;33.17;;
54679;SDS011;40578;53.178;5.846;2023-05-07T03:55:42;43.30;;;31.97;;
54679;SDS011;40578;53.178;5.846;2023-05-07T03:58:08;47.27;;;31.17;;
54679;SDS011;40578;53.178;5.846;2023-05-07T04:00:33;46.03;;;32.30;;
54679;SDS011;40578;53.178;5.846;2023-05-07T04:03:03;48.17;;;32.70;;
54679;SDS011;40578;53.178;5.846;2023-05-07T04:05:29;49.58;;;31.95;;
54679;SDS011;40578;53.178;5.846;2023-05-07T04:07:55;49.30;;;32.50;;
54679;SDS011;40578;53.178;5.846;2023-05-07T04:10:22;43.15;;;30.88;;
54679;SDS011;40578;53.178;5.846;2023-05-07T04:12:48;45.13;;;31.57;;
54679;SDS011;40578;53.178;5.846;2023-05-07T04:15:13;44.40;;;31.47;;
54679;SDS011;40578;53.178;5.846;2023-05-07T04:17:39;46.77;;;33.90;;
54679;SDS011;40578;53.178;5.846;2023-05-07T04:22:34;48.05;;;33.80;;
54679;SDS011;40578;53.178;5.846;2023-05-07T04:24:59;48.63;;;33.47;;
54679;SDS011;40578;53.178;5.846;2023-05-07T04:27:25;48.00;;;33.80;;
54679;SDS011;40578;53.178;5.846;2023-05-07T04:29:51;50.92;;;33.67;;
54679;SDS011;40578;53.178;5.846;2023-05-07T04:32:20;47.72;;;32.88;;
54679;SDS011;40578;53.178;5.846;2023-05-07T04:34:46;50.43;;;32.50;;
54679;SDS011;40578;53.178;5.846;2023-05-07T04:37:12;47.80;;;33.63;;
54679;SDS011;40578;53.178;5.846;2023-05-07T04:39:37;51.57;;;34.97;;
54679;SDS011;40578;53.178;5.846;2023-05-07T04:42:03;48.10;;;33.33;;
54679;SDS011;40578;53.178;5.846;2023-05-07T04:44:28;49.60;;;33.87;;
54679;SDS011;40578;53.178;5.846;2023-05-07T04:46:56;47.63;;;33.20;;
54679;SDS011;40578;53.178;5.846;2023-05-07T04:49:22;48.57;;;34.00;;
54679;SDS011;40578;53.178;5.846;2023-05-07T04:51:47;49.67;;;34.77;;
54679;SDS011;40578;53.178;5.846;2023-05-07T04:54:13;51.20;;;34.07;;
54679;SDS011;40578;53.178;5.846;2023-05-07T04:56:41;51.45;;;35.55;;
54679;SDS011;40578;53.178;5.846;2023-05-07T04:59:06;51.83;;;35.73;;
54679;SDS011;40578;53.178;5.846;2023-05-07T05:01:32;49.73;;;34.83;;
54679;SDS011;40578;53.178;5.846;2023-05-07T05:03:58;53.80;;;35.63;;
54679;SDS011;40578;53.178;5.846;2023-05-07T05:06:25;53.10;;;33.92;;
54679;SDS011;40578;53.178;5.846;2023-05-07T05:08:50;56.23;;;36.87;;
54679;SDS011;40578;53.178;5.846;2023-05-07T05:11:16;53.73;;;35.83;;
54679;SDS011;40578;53.178;5.846;2023-05-07T05:13:42;56.50;;;36.40;;
54679;SDS011;40578;53.178;5.846;2023-05-07T05:16:08;52.90;;;35.57;;
54679;SDS011;40578;53.178;5.846;2023-05-07T05:18:34;55.40;;;36.90;;
54679;SDS011;40578;53.178;5.846;2023-05-07T05:20:59;53.30;;;36.03;;
54679;SDS011;40578;53.178;5.846;2023-05-07T05:23:25;56.03;;;35.93;;
54679;SDS011;40578;53.178;5.846;2023-05-07T05:25:55;53.13;;;34.03;;
54679;SDS011;40578;53.178;5.846;2023-05-07T05:28:23;57.88;;;36.00;;
54679;SDS011;40578;53.178;5.846;2023-05-07T05:30:49;55.90;;;35.37;;
54679;SDS011;40578;53.178;5.846;2023-05-07T05:33:15;50.37;;;34.83;;
54679;SDS011;40578;53.178;5.846;2023-05-07T05:35:41;55.97;;;36.47;;
54679;SDS011;40578;53.178;5.846;2023-05-07T05:38:07;54.95;;;35.88;;
54679;SDS011;40578;53.178;5.846;2023-05-07T05:40:33;55.57;;;35.07;;
54679;SDS011;40578;53.178;5.846;2023-05-07T05:42:58;59.50;;;37.37;;
54679;SDS011;40578;53.178;5.846;2023-05-07T05:45:24;54.53;;;35.40;;
54679;SDS011;40578;53.178;5.846;2023-05-07T05:47:50;58.07;;;36.60;;
54679;SDS011;40578;53.178;5.846;2023-05-07T05:50:16;56.43;;;37.47;;
54679;SDS011;40578;53.178;5.846;2023-05-07T05:52:41;54.83;;;35.70;;
54679;SDS011;40578;53.178;5.846;2023-05-07T05:55:07;55.70;;;35.80;;
54679;SDS011;40578;53.178;5.846;2023-05-07T05:57:33;55.15;;;35.05;;
54679;SDS011;40578;53.178;5.846;2023-05-07T05:59:59;54.93;;;36.93;;
54679;SDS011;40578;53.178;5.846;2023-05-07T06:02:25;55.17;;;35.42;;
54679;SDS011;40578;53.178;5.846;2023-05-07T06:04:52;57.63;;;36.27;;
54679;SDS011;40578;53.178;5.846;2023-05-07T06:07:19;53.58;;;35.90;;
54679;SDS011;40578;53.178;5.846;2023-05-07T06:09:45;55.50;;;35.05;;
54679;SDS011;40578;53.178;5.846;2023-05-07T06:12:11;49.87;;;35.07;;
54679;SDS011;40578;53.178;5.846;2023-05-07T06:14:36;49.03;;;34.75;;
54679;SDS011;40578;53.178;5.846;2023-05-07T06:17:02;51.83;;;34.77;;
54679;SDS011;40578;53.178;5.846;2023-05-07T06:19:28;47.83;;;33.93;;
54679;SDS011;40578;53.178;5.846;2023-05-07T06:21:53;51.27;;;34.30;;
54679;SDS011;40578;53.178;5.846;2023-05-07T06:24:21;49.30;;;34.75;;
54679;SDS011;40578;53.178;5.846;2023-05-07T06:26:47;53.67;;;34.50;;
54679;SDS011;40578;53.178;5.846;2023-05-07T06:29:13;50.07;;;33.40;;
54679;SDS011;40578;53.178;5.846;2023-05-07T06:31:38;50.80;;;34.60;;
54679;SDS011;40578;53.178;5.846;2023-05-07T06:34:04;49.33;;;34.57;;
54679;SDS011;40578;53.178;5.846;2023-05-07T06:36:30;47.37;;;33.73;;
54679;SDS011;40578;53.178;5.846;2023-05-07T06:38:56;48.97;;;32.63;;
54679;SDS011;40578;53.178;5.846;2023-05-07T06:41:21;46.83;;;34.13;;
54679;SDS011;40578;53.178;5.846;2023-05-07T06:43:47;47.40;;;33.17;;
54679;SDS011;40578;53.178;5.846;2023-05-07T06:46:12;49.63;;;32.80;;
54679;SDS011;40578;53.178;5.846;2023-05-07T06:48:38;41.53;;;31.23;;
54679;SDS011;40578;53.178;5.846;2023-05-07T06:51:04;45.97;;;31.77;;
54679;SDS011;40578;53.178;5.846;2023-05-07T06:53:29;48.43;;;32.43;;
54679;SDS011;40578;53.178;5.846;2023-05-07T06:55:55;45.23;;;31.27;;
54679;SDS011;40578;53.178;5.846;2023-05-07T06:58:21;42.33;;;30.20;;
54679;SDS011;40578;53.178;5.846;2023-05-07T07:00:47;43.15;;;31.02;;
54679;SDS011;40578;53.178;5.846;2023-05-07T07:03:13;44.07;;;30.70;;
54679;SDS011;40578;53.178;5.846;2023-05-07T07:05:42;42.33;;;30.43;;
54679;SDS011;40578;53.178;5.846;2023-05-07T07:08:08;43.20;;;30.08;;
54679;SDS011;40578;53.178;5.846;2023-05-07T07:10:34;39.10;;;28.97;;
54679;SDS011;40578;53.178;5.846;2023-05-07T07:13:00;38.93;;;29.10;;
54679;SDS011;40578;53.178;5.846;2023-05-07T07:15:25;45.83;;;31.53;;
54679;SDS011;40578;53.178;5.846;2023-05-07T07:17:51;41.78;;;30.40;;
54679;SDS011;40578;53.178;5.846;2023-05-07T07:20:17;40.33;;;29.20;;
54679;SDS011;40578;53.178;5.846;2023-05-07T07:22:42;41.77;;;30.73;;
54679;SDS011;40578;53.178;5.846;2023-05-07T07:25:08;40.20;;;29.47;;
54679;SDS011;40578;53.178;5.846;2023-05-07T07:27:34;40.85;;;29.50;;
54679;SDS011;40578;53.178;5.846;2023-05-07T07:30:00;38.42;;;29.65;;
54679;SDS011;40578;53.178;5.846;2023-05-07T07:32:26;38.73;;;30.03;;
54679;SDS011;40578;53.178;5.846;2023-05-07T07:34:52;41.17;;;29.67;;
54679;SDS011;40578;53.178;5.846;2023-05-07T07:37:17;36.33;;;27.37;;
54679;SDS011;40578;53.178;5.846;2023-05-07T07:39:43;37.97;;;29.07;;
54679;SDS011;40578;53.178;5.846;2023-05-07T07:42:08;37.00;;;27.50;;
54679;SDS011;40578;53.178;5.846;2023-05-07T07:44:34;37.27;;;27.53;;
54679;SDS011;40578;53.178;5.846;2023-05-07T07:47:00;35.60;;;27.23;;
54679;SDS011;40578;53.178;5.846;2023-05-07T07:49:26;38.23;;;27.90;;
54679;SDS011;40578;53.178;5.846;2023-05-07T07:51:52;35.28;;;27.80;;
54679;SDS011;40578;53.178;5.846;2023-05-07T07:54:17;33.20;;;26.10;;
54679;SDS011;40578;53.178;5.846;2023-05-07T07:56:43;34.77;;;26.93;;
54679;SDS011;40578;53.178;5.846;2023-05-07T07:59:09;36.47;;;25.93;;
54679;SDS011;40578;53.178;5.846;2023-05-07T08:01:34;38.13;;;25.93;;
54679;SDS011;40578;53.178;5.846;2023-05-07T08:04:00;35.20;;;27.90;;
54679;SDS011;40578;53.178;5.846;2023-05-07T08:06:28;35.80;;;27.25;;
54679;SDS011;40578;53.178;5.846;2023-05-07T08:08:53;34.70;;;26.50;;
54679;SDS011;40578;53.178;5.846;2023-05-07T08:11:20;36.33;;;27.23;;
54679;SDS011;40578;53.178;5.846;2023-05-07T08:13:46;33.60;;;26.17;;
54679;SDS011;40578;53.178;5.846;2023-05-07T08:16:12;33.17;;;25.40;;
54679;SDS011;40578;53.178;5.846;2023-05-07T08:18:38;31.27;;;24.70;;
54679;SDS011;40578;53.178;5.846;2023-05-07T08:21:04;34.03;;;24.73;;
54679;SDS011;40578;53.178;5.846;2023-05-07T08:23:29;33.73;;;25.13;;
54679;SDS011;40578;53.178;5.846;2023-05-07T08:25:55;35.00;;;26.87;;
54679;SDS011;40578;53.178;5.846;2023-05-07T08:28:21;36.17;;;26.40;;
54679;SDS011;40578;53.178;5.846;2023-05-07T08:30:47;33.53;;;26.17;;
54679;SDS011;40578;53.178;5.846;2023-05-07T08:33:12;35.53;;;27.43;;
54679;SDS011;40578;53.178;5.846;2023-05-07T08:35:38;32.40;;;26.00;;
54679;SDS011;40578;53.178;5.846;2023-05-07T08:38:03;31.00;;;25.43;;
54679;SDS011;40578;53.178;5.846;2023-05-07T08:40:29;34.30;;;26.63;;
54679;SDS011;40578;53.178;5.846;2023-05-07T08:43:03;31.92;;;25.95;;
54679;SDS011;40578;53.178;5.846;2023-05-07T08:45:30;32.42;;;26.08;;
54679;SDS011;40578;53.178;5.846;2023-05-07T08:48:04;30.67;;;24.20;;
54679;SDS011;40578;53.178;5.846;2023-05-07T08:50:35;32.08;;;25.55;;
54679;SDS011;40578;53.178;5.846;2023-05-07T08:53:04;30.55;;;25.77;;
54679;SDS011;40578;53.178;5.846;2023-05-07T08:55:30;34.97;;;26.02;;
54679;SDS011;40578;53.178;5.846;2023-05-07T08:57:56;33.17;;;27.25;;
54679;SDS011;40578;53.178;5.846;2023-05-07T09:00:22;33.90;;;26.10;;
54679;SDS011;40578;53.178;5.846;2023-05-07T09:02:47;34.27;;;25.90;;
54679;SDS011;40578;53.178;5.846;2023-05-07T09:05:13;33.47;;;25.20;;
54679;SDS011;40578;53.178;5.846;2023-05-07T09:07:39;31.13;;;25.17;;
54679;SDS011;40578;53.178;5.846;2023-05-07T09:10:05;33.85;;;25.65;;
54679;SDS011;40578;53.178;5.846;2023-05-07T09:12:31;32.55;;;24.90;;
54679;SDS011;40578;53.178;5.846;2023-05-07T09:14:58;34.72;;;25.80;;
54679;SDS011;40578;53.178;5.846;2023-05-07T09:19:49;32.33;;;24.83;;
54679;SDS011;40578;53.178;5.846;2023-05-07T09:22:15;32.77;;;26.00;;
54679;SDS011;40578;53.178;5.846;2023-05-07T09:24:43;30.83;;;25.13;;
54679;SDS011;40578;53.178;5.846;2023-05-07T09:27:15;31.60;;;24.67;;
54679;SDS011;40578;53.178;5.846;2023-05-07T09:32:08;33.35;;;25.63;;
54679;SDS011;40578;53.178;5.846;2023-05-07T09:34:34;31.07;;;25.00;;
54679;SDS011;40578;53.178;5.846;2023-05-07T09:37:01;30.63;;;24.98;;
54679;SDS011;40578;53.178;5.846;2023-05-07T09:39:40;30.88;;;24.85;;
54679;SDS011;40578;53.178;5.846;2023-05-07T09:42:07;31.50;;;24.23;;
54679;SDS011;40578;53.178;5.846;2023-05-07T09:44:33;31.63;;;25.43;;
54679;SDS011;40578;53.178;5.846;2023-05-07T09:47:00;32.47;;;25.98;;
54679;SDS011;40578;53.178;5.846;2023-05-07T09:49:28;32.47;;;25.30;;
54679;SDS011;40578;53.178;5.846;2023-05-07T09:54:22;31.05;;;24.17;;
54679;SDS011;40578;53.178;5.846;2023-05-07T09:56:48;30.27;;;24.60;;
54679;SDS011;40578;53.178;5.846;2023-05-07T09:59:14;30.02;;;24.25;;
54679;SDS011;40578;53.178;5.846;2023-05-07T10:01:42;28.98;;;23.15;;
54679;SDS011;40578;53.178;5.846;2023-05-07T10:04:09;30.45;;;23.73;;
54679;SDS011;40578;53.178;5.846;2023-05-07T10:06:36;29.35;;;24.02;;
54679;SDS011;40578;53.178;5.846;2023-05-07T10:11:30;30.67;;;24.63;;
54679;SDS011;40578;53.178;5.846;2023-05-07T10:13:58;30.23;;;24.05;;
54679;SDS011;40578;53.178;5.846;2023-05-07T10:16:27;29.55;;;23.80;;
54679;SDS011;40578;53.178;5.846;2023-05-07T10:18:57;32.13;;;23.88;;
54679;SDS011;40578;53.178;5.846;2023-05-07T10:21:24;30.30;;;24.50;;
54679;SDS011;40578;53.178;5.846;2023-05-07T10:24:26;29.25;;;23.83;;
54679;SDS011;40578;53.178;5.846;2023-05-07T10:26:52;32.17;;;24.77;;
54679;SDS011;40578;53.178;5.846;2023-05-07T10:32:42;32.63;;;27.50;;
54679;SDS011;40578;53.178;5.846;2023-05-07T10:35:19;31.52;;;25.00;;
54679;SDS011;40578;53.178;5.846;2023-05-07T10:37:47;30.60;;;24.80;;
54679;SDS011;40578;53.178;5.846;2023-05-07T10:40:14;32.05;;;24.95;;
54679;SDS011;40578;53.178;5.846;2023-05-07T10:42:52;31.08;;;24.83;;
54679;SDS011;40578;53.178;5.846;2023-05-07T10:45:20;30.02;;;24.25;;
54679;SDS011;40578;53.178;5.846;2023-05-07T10:50:30;29.90;;;23.80;;
54679;SDS011;40578;53.178;5.846;2023-05-07T10:55:43;31.23;;;24.95;;
54679;SDS011;40578;53.178;5.846;2023-05-07T10:58:30;29.23;;;24.30;;
54679;SDS011;40578;53.178;5.846;2023-05-07T11:01:00;28.95;;;23.52;;
54679;SDS011;40578;53.178;5.846;2023-05-07T11:03:26;29.90;;;23.50;;
54679;SDS011;40578;53.178;5.846;2023-05-07T11:08:56;29.10;;;24.42;;
54679;SDS011;40578;53.178;5.846;2023-05-07T11:17:05;27.48;;;23.80;;
54679;SDS011;40578;53.178;5.846;2023-05-07T11:19:51;29.75;;;23.90;;
54679;SDS011;40578;53.178;5.846;2023-05-07T11:25:02;30.08;;;25.00;;
54679;SDS011;40578;53.178;5.846;2023-05-07T11:27:28;28.70;;;24.45;;
54679;SDS011;40578;53.178;5.846;2023-05-07T11:29:54;28.83;;;23.70;;
54679;SDS011;40578;53.178;5.846;2023-05-07T11:34:53;28.63;;;24.27;;
54679;SDS011;40578;53.178;5.846;2023-05-07T11:37:19;30.33;;;24.80;;
54679;SDS011;40578;53.178;5.846;2023-05-07T11:39:46;28.20;;;24.13;;
54679;SDS011;40578;53.178;5.846;2023-05-07T11:45:00;30.17;;;24.92;;
54679;SDS011;40578;53.178;5.846;2023-05-07T11:47:29;30.20;;;25.08;;
54679;SDS011;40578;53.178;5.846;2023-05-07T11:49:55;31.48;;;24.52;;
54679;SDS011;40578;53.178;5.846;2023-05-07T11:52:22;30.52;;;24.83;;
54679;SDS011;40578;53.178;5.846;2023-05-07T11:54:49;30.55;;;24.58;;
54679;SDS011;40578;53.178;5.846;2023-05-07T11:57:15;29.45;;;24.38;;
54679;SDS011;40578;53.178;5.846;2023-05-07T11:59:41;27.90;;;23.00;;
54679;SDS011;40578;53.178;5.846;2023-05-07T12:02:07;28.70;;;24.63;;
54679;SDS011;40578;53.178;5.846;2023-05-07T12:04:33;28.40;;;24.63;;
54679;SDS011;40578;53.178;5.846;2023-05-07T12:06:58;28.53;;;24.27;;
54679;SDS011;40578;53.178;5.846;2023-05-07T12:09:24;28.43;;;23.87;;
54679;SDS011;40578;53.178;5.846;2023-05-07T12:11:51;28.77;;;24.45;;
54679;SDS011;40578;53.178;5.846;2023-05-07T12:14:17;29.77;;;23.95;;
54679;SDS011;40578;53.178;5.846;2023-05-07T12:16:43;27.47;;;23.87;;
54679;SDS011;40578;53.178;5.846;2023-05-07T12:19:10;28.88;;;24.17;;
54679;SDS011;40578;53.178;5.846;2023-05-07T12:21:37;29.20;;;25.05;;
54679;SDS011;40578;53.178;5.846;2023-05-07T12:24:04;32.10;;;25.27;;
54679;SDS011;40578;53.178;5.846;2023-05-07T12:26:30;25.88;;;22.73;;
54679;SDS011;40578;53.178;5.846;2023-05-07T12:28:59;27.10;;;23.63;;
54679;SDS011;40578;53.178;5.846;2023-05-07T12:31:27;28.85;;;22.20;;
54679;SDS011;40578;53.178;5.846;2023-05-07T12:33:53;27.08;;;23.05;;
54679;SDS011;40578;53.178;5.846;2023-05-07T12:36:19;26.27;;;22.75;;
54679;SDS011;40578;53.178;5.846;2023-05-07T12:38:46;26.25;;;22.73;;
54679;SDS011;40578;53.178;5.846;2023-05-07T12:41:15;24.42;;;21.83;;
54679;SDS011;40578;53.178;5.846;2023-05-07T12:43:43;27.23;;;22.10;;
54679;SDS011;40578;53.178;5.846;2023-05-07T12:46:09;24.48;;;21.75;;
54679;SDS011;40578;53.178;5.846;2023-05-07T12:48:36;25.53;;;21.73;;
54679;SDS011;40578;53.178;5.846;2023-05-07T12:51:02;25.00;;;21.50;;
54679;SDS011;40578;53.178;5.846;2023-05-07T12:53:29;25.30;;;21.73;;
54679;SDS011;40578;53.178;5.846;2023-05-07T12:55:56;24.15;;;20.67;;
54679;SDS011;40578;53.178;5.846;2023-05-07T12:58:30;22.92;;;20.42;;
54679;SDS011;40578;53.178;5.846;2023-05-07T13:00:59;25.50;;;21.17;;
54679;SDS011;40578;53.178;5.846;2023-05-07T13:03:27;26.67;;;20.65;;
54679;SDS011;40578;53.178;5.846;2023-05-07T13:05:54;24.35;;;20.90;;
54679;SDS011;40578;53.178;5.846;2023-05-07T13:08:28;26.52;;;20.08;;
54679;SDS011;40578;53.178;5.846;2023-05-07T13:11:01;24.75;;;20.40;;
54679;SDS011;40578;53.178;5.846;2023-05-07T13:13:32;23.58;;;20.58;;
54679;SDS011;40578;53.178;5.846;2023-05-07T13:15:59;24.48;;;21.65;;
54679;SDS011;40578;53.178;5.846;2023-05-07T13:18:25;23.00;;;19.65;;
54679;SDS011;40578;53.178;5.846;2023-05-07T13:20:52;24.10;;;20.92;;
54679;SDS011;40578;53.178;5.846;2023-05-07T13:23:18;23.65;;;21.08;;
54679;SDS011;40578;53.178;5.846;2023-05-07T13:25:44;24.30;;;21.63;;
54679;SDS011;40578;53.178;5.846;2023-05-07T13:28:11;23.70;;;21.13;;
54679;SDS011;40578;53.178;5.846;2023-05-07T13:30:37;22.90;;;19.85;;
54679;SDS011;40578;53.178;5.846;2023-05-07T13:33:02;23.60;;;21.05;;
54679;SDS011;40578;53.178;5.846;2023-05-07T13:35:28;24.90;;;20.70;;
54679;SDS011;40578;53.178;5.846;2023-05-07T13:37:54;23.88;;;20.48;;
54679;SDS011;40578;53.178;5.846;2023-05-07T13:40:21;21.93;;;19.73;;
54679;SDS011;40578;53.178;5.846;2023-05-07T13:42:47;22.25;;;19.65;;
54679;SDS011;40578;53.178;5.846;2023-05-07T13:45:14;21.75;;;19.52;;
54679;SDS011;40578;53.178;5.846;2023-05-07T13:47:40;21.85;;;18.83;;
54679;SDS011;40578;53.178;5.846;2023-05-07T13:50:07;22.15;;;19.85;;
54679;SDS011;40578;53.178;5.846;2023-05-07T13:52:33;21.70;;;19.42;;
54679;SDS011;40578;53.178;5.846;2023-05-07T13:55:00;20.90;;;18.73;;
54679;SDS011;40578;53.178;5.846;2023-05-07T13:59:51;24.55;;;19.90;;
54679;SDS011;40578;53.178;5.846;2023-05-07T14:02:17;25.03;;;19.63;;
54679;SDS011;40578;53.178;5.846;2023-05-07T14:04:42;22.90;;;20.50;;
54679;SDS011;40578;53.178;5.846;2023-05-07T14:07:08;22.17;;;18.90;;
54679;SDS011;40578;53.178;5.846;2023-05-07T14:09:34;21.40;;;19.10;;
54679;SDS011;40578;53.178;5.846;2023-05-07T14:11:59;21.57;;;18.87;;
54679;SDS011;40578;53.178;5.846;2023-05-07T14:16:52;20.75;;;18.55;;
54679;SDS011;40578;53.178;5.846;2023-05-07T14:19:18;21.60;;;19.40;;
54679;SDS011;40578;53.178;5.846;2023-05-07T14:21:43;21.87;;;19.30;;
54679;SDS011;40578;53.178;5.846;2023-05-07T14:24:09;22.97;;;19.00;;
54679;SDS011;40578;53.178;5.846;2023-05-07T14:26:35;20.17;;;18.02;;
54679;SDS011;40578;53.178;5.846;2023-05-07T14:29:01;19.57;;;17.57;;
54679;SDS011;40578;53.178;5.846;2023-05-07T14:31:27;20.02;;;17.88;;
54679;SDS011;40578;53.178;5.846;2023-05-07T14:33:53;21.10;;;17.90;;
54679;SDS011;40578;53.178;5.846;2023-05-07T14:36:19;19.03;;;17.03;;
54679;SDS011;40578;53.178;5.846;2023-05-07T14:38:50;18.60;;;16.55;;
54679;SDS011;40578;53.178;5.846;2023-05-07T14:41:19;17.77;;;15.88;;
54679;SDS011;40578;53.178;5.846;2023-05-07T14:43:46;17.95;;;16.13;;
54679;SDS011;40578;53.178;5.846;2023-05-07T14:46:17;18.00;;;15.45;;
54679;SDS011;40578;53.178;5.846;2023-05-07T14:48:44;20.65;;;18.33;;
54679;SDS011;40578;53.178;5.846;2023-05-07T14:51:11;20.17;;;17.35;;
54679;SDS011;40578;53.178;5.846;2023-05-07T14:53:38;19.05;;;16.52;;
54679;SDS011;40578;53.178;5.846;2023-05-07T14:56:05;19.77;;;15.93;;
54679;SDS011;40578;53.178;5.846;2023-05-07T14:58:31;18.55;;;16.65;;
54679;SDS011;40578;53.178;5.846;2023-05-07T15:00:58;18.70;;;16.77;;